Time;durP1;ratioP1;P1;durP2;ratioP2;P2;SDS_P1;SDS_P2;PMS_P1;PMS_P2;Temp;Humidity;BMP_temperature;BMP_pressure;BME280_temperature;BME280_humidity;BME280_pressure;Samples;Min_cycle;Max_cycle;Signal;HPM_P1;HPM_P2
2022/05/06 00:02:00;;;;;;;3.97;3.28;;;15.30;96.70;;;;;;5059573;28;20131;-84
2022/05/06 00:04:29;;;;;;;7.75;3.35;;;15.30;96.70;;;;;;5059555;28;20041;-84
2022/05/06 00:06:57;;;;;;;6.43;3.10;;;15.30;96.70;;;;;;5060473;28;20055;-84
2022/05/06 00:09:26;;;;;;;7.00;3.55;;;15.30;96.70;;;;;;5066796;28;20051;-84
2022/05/06 00:11:54;;;;;;;4.25;3.28;;;15.40;96.70;;;;;;5059747;28;20068;-84
2022/05/06 00:14:22;;;;;;;6.35;3.75;;;15.30;96.70;;;;;;5054616;28;20055;-84
2022/05/06 00:17:23;;;;;;;4.75;3.13;;;15.30;96.70;;;;;;5067065;28;20040;-84
2022/05/06 00:19:56;;;;;;;5.85;3.63;;;15.30;96.70;;;;;;5043675;28;20522;-84
2022/05/06 00:22:25;;;;;;;4.25;3.40;;;15.30;96.70;;;;;;5040987;28;20223;-84
2022/05/06 00:24:53;;;;;;;5.93;3.45;;;15.30;96.70;;;;;;5060941;28;20036;-84
2022/05/06 00:27:21;;;;;;;4.65;3.15;;;15.30;96.70;;;;;;5067810;28;20059;-84
2022/05/06 00:29:49;;;;;;;6.15;4.10;;;15.40;96.70;;;;;;5064165;28;20051;-84
2022/05/06 00:32:18;;;;;;;6.93;4.28;;;15.40;96.70;;;;;;5067638;28;20054;-84
2022/05/06 00:34:46;;;;;;;7.55;3.67;;;15.40;96.70;;;;;;5064429;28;20070;-84
2022/05/06 00:37:16;;;;;;;5.93;3.53;;;15.40;96.70;;;;;;5047619;28;20052;-84
2022/05/06 00:39:46;;;;;;;6.38;3.67;;;15.40;96.70;;;;;;5065851;28;20132;-84
2022/05/06 00:42:15;;;;;;;7.75;3.75;;;15.40;96.70;;;;;;5055926;28;20197;-84
2022/05/06 00:44:44;;;;;;;6.68;3.42;;;15.40;96.70;;;;;;5047407;28;20079;-84
2022/05/06 00:47:14;;;;;;;6.35;3.38;;;15.40;96.70;;;;;;5041730;28;20037;-84
2022/05/06 00:49:42;;;;;;;5.95;3.30;;;15.40;96.70;;;;;;5060777;28;20062;-84
2022/05/06 00:52:11;;;;;;;5.55;3.58;;;15.50;96.70;;;;;;5061638;28;20082;-84
2022/05/06 00:54:48;;;;;;;6.10;3.70;;;15.50;96.70;;;;;;5044740;28;20059;-84
2022/05/06 00:57:17;;;;;;;7.00;3.60;;;15.50;96.70;;;;;;5053556;28;20049;-84
2022/05/06 01:02:33;;;;;;;;;;;15.60;96.70;;;;;;5066501;28;20571;-84
2022/05/06 01:05:07;;;;;;;4.38;2.78;;;15.60;96.70;;;;;;5055710;28;19960;-85
2022/05/06 01:07:37;;;;;;;4.97;3.10;;;15.50;96.70;;;;;;5062474;28;20044;-84
2022/05/06 01:10:08;;;;;;;4.75;2.55;;;15.50;96.70;;;;;;5062419;28;20079;-84
2022/05/06 01:12:36;;;;;;;5.55;3.10;;;15.50;96.70;;;;;;5066101;28;20760;-84
2022/05/06 01:15:21;;;;;;;5.95;3.10;;;15.50;96.70;;;;;;5051536;28;20621;-84
2022/05/06 01:17:56;;;;;;;4.68;2.80;;;15.50;96.70;;;;;;5049292;28;20044;-84
2022/05/06 01:20:27;;;;;;;5.25;3.50;;;15.50;96.70;;;;;;5059478;28;20067;-84
2022/05/06 01:23:05;;;;;;;5.88;3.50;;;15.50;96.70;;;;;;5057747;28;20102;-84
2022/05/06 01:25:34;;;;;;;4.70;3.42;;;15.50;96.70;;;;;;5057538;28;20048;-84
2022/05/06 01:28:06;;;;;;;9.05;3.53;;;15.40;96.70;;;;;;5050244;28;20036;-84
2022/05/06 01:30:45;;;;;;;6.50;3.53;;;15.40;96.70;;;;;;5064398;28;20051;-84
2022/05/06 01:33:17;;;;;;;7.18;3.40;;;15.40;96.70;;;;;;5059743;28;20049;-84
2022/05/06 01:35:47;;;;;;;4.35;3.00;;;15.40;96.70;;;;;;5066642;28;20048;-87
2022/05/06 01:38:26;;;;;;;4.90;3.22;;;15.40;96.70;;;;;;5063420;28;20536;-87
2022/05/06 01:40:59;;;;;;;4.28;3.10;;;15.50;96.70;;;;;;5050303;28;20407;-87
2022/05/06 01:43:42;;;;;;;4.95;3.58;;;15.50;96.70;;;;;;5056776;28;20440;-87
2022/05/06 01:46:21;;;;;;;4.20;3.10;;;15.40;96.70;;;;;;5048767;28;20083;-86
2022/05/06 01:49:02;;;;;;;4.80;3.72;;;15.40;96.70;;;;;;5050226;28;20074;-87
2022/05/06 01:51:32;;;;;;;5.10;3.30;;;15.40;96.70;;;;;;5054842;28;20265;-87
2022/05/06 01:54:05;;;;;;;5.68;3.13;;;15.40;96.70;;;;;;5060877;28;20051;-87
2022/05/06 01:56:34;;;;;;;4.50;3.25;;;15.40;96.70;;;;;;5061769;28;20044;-86
2022/05/06 01:59:02;;;;;;;6.95;3.10;;;15.40;96.70;;;;;;5066068;28;20071;-87
2022/05/06 02:01:33;;;;;;;5.00;2.65;;;15.40;96.70;;;;;;5065415;28;20143;-87
2022/05/06 02:06:51;;;;;;;;;;;15.40;96.70;;;;;;5066188;28;20075;-87
2022/05/06 02:09:23;;;;;;;4.60;2.53;;;15.50;96.70;;;;;;5046413;28;19925;-86
2022/05/06 02:12:03;;;;;;;5.03;3.13;;;15.50;96.70;;;;;;5061434;28;20049;-87
2022/05/06 02:14:48;;;;;;;4.57;2.80;;;15.50;96.70;;;;;;5050088;28;20056;-85
2022/05/06 02:17:35;;;;;;;5.05;2.88;;;15.50;96.70;;;;;;5057764;28;20177;-86
2022/05/06 02:20:14;;;;;;;3.75;2.47;;;15.60;96.70;;;;;;5066993;28;20071;-86
2022/05/06 02:23:02;;;;;;;4.20;2.80;;;15.60;96.70;;;;;;5051333;28;20048;-85
2022/05/06 02:25:48;;;;;;;4.20;2.45;;;15.50;96.70;;;;;;5054933;28;20045;-86
2022/05/06 02:28:20;;;;;;;4.18;2.92;;;15.50;96.70;;;;;;5052089;28;20044;-86
2022/05/06 02:33:53;;;;;;;5.22;2.92;;;15.60;96.70;;;;;;5058188;28;20049;-86
2022/05/06 02:36:29;;;;;;;7.05;2.80;;;15.60;96.70;;;;;;5068935;28;20508;-87
2022/05/06 02:38:57;;;;;;;4.40;2.80;;;15.70;96.70;;;;;;5050211;28;20049;-86
2022/05/06 02:41:28;;;;;;;4.50;2.95;;;15.60;96.70;;;;;;5043865;28;20127;-86
2022/05/06 02:43:57;;;;;;;3.63;2.90;;;15.60;96.70;;;;;;5068705;28;20080;-87
2022/05/06 02:46:30;;;;;;;7.43;3.10;;;15.60;96.70;;;;;;5069864;28;20106;-86
2022/05/06 02:48:59;;;;;;;5.85;3.10;;;15.60;96.70;;;;;;5066333;28;20041;-87
2022/05/06 02:51:30;;;;;;;4.32;2.95;;;15.60;96.70;;;;;;5059540;28;20569;-87
2022/05/06 02:53:59;;;;;;;5.55;3.13;;;15.60;96.70;;;;;;5053662;28;20064;-86
2022/05/06 02:56:35;;;;;;;5.97;2.90;;;15.60;96.70;;;;;;5047188;28;20504;-87
2022/05/06 02:59:05;;;;;;;4.93;3.03;;;15.60;96.70;;;;;;5066405;28;20071;-86
2022/05/06 03:01:37;;;;;;;3.63;2.53;;;15.60;96.70;;;;;;5067556;28;20048;-86
2022/05/06 03:04:12;;;;;;;5.32;2.83;;;15.60;96.70;;;;;;5063200;28;20059;-86
2022/05/06 03:06:44;;;;;;;5.15;3.35;;;15.60;96.70;;;;;;5054066;28;20048;-86
2022/05/06 03:09:25;;;;;;;2.83;2.30;;;15.60;96.70;;;;;;5067339;28;20032;-86
2022/05/06 03:11:56;;;;;;;3.72;2.53;;;15.60;96.70;;;;;;5043720;28;20047;-86
2022/05/06 03:14:26;;;;;;;4.30;2.60;;;15.60;96.70;;;;;;5062326;28;20048;-86
2022/05/06 03:17:14;;;;;;;4.53;2.90;;;15.60;96.70;;;;;;5053866;28;20060;-86
2022/05/06 03:19:43;;;;;;;5.78;2.88;;;15.60;96.70;;;;;;5065591;28;20045;-86
2022/05/06 03:22:11;;;;;;;6.30;3.40;;;15.60;96.70;;;;;;5055319;28;20053;-85
2022/05/06 03:24:40;;;;;;;3.83;2.72;;;15.60;96.70;;;;;;5064727;28;20059;-86
2022/05/06 03:27:59;;;;;;;6.53;3.33;;;15.60;96.70;;;;;;5050504;28;20045;-84
2022/05/06 03:29:58;;;;;;;4.07;2.67;;;15.60;96.70;;;;;;5065652;28;20102;-85
2022/05/06 03:32:27;;;;;;;2.97;2.50;;;15.60;96.70;;;;;;5049628;28;20631;-84
2022/05/06 03:34:56;;;;;;;3.47;2.60;;;15.60;96.70;;;;;;5058820;28;20048;-84
2022/05/06 03:37:26;;;;;;;6.78;2.90;;;15.60;96.70;;;;;;5063288;28;20044;-84
2022/05/06 03:39:55;;;;;;;5.65;3.00;;;15.60;96.70;;;;;;5042609;28;20049;-84
2022/05/06 03:42:25;;;;;;;3.78;2.38;;;15.60;96.70;;;;;;5060824;28;20041;-86
2022/05/06 03:44:54;;;;;;;7.25;3.33;;;15.60;96.70;;;;;;5033290;28;20049;-87
2022/05/06 03:47:23;;;;;;;5.18;2.78;;;15.60;96.70;;;;;;5066956;28;20055;-85
2022/05/06 03:52:39;;;;;;;7.22;3.08;;;15.60;96.70;;;;;;5038000;28;20049;-84
2022/05/06 03:55:08;;;;;;;4.22;3.25;;;15.60;96.70;;;;;;5044863;28;20040;-86
2022/05/06 03:57:38;;;;;;;4.15;3.17;;;15.60;96.70;;;;;;5064107;28;20169;-86
2022/05/06 04:00:08;;;;;;;4.25;2.55;;;15.60;96.70;;;;;;5046310;28;20049;-86
2022/05/06 04:02:42;;;;;;;5.10;2.47;;;15.60;96.70;;;;;;5030453;28;20052;-87
2022/05/06 04:05:16;;;;;;;7.30;3.25;;;15.70;96.70;;;;;;5065999;28;20040;-86
2022/05/06 04:07:45;;;;;;;6.10;2.80;;;15.70;96.70;;;;;;5059928;28;20055;-87
2022/05/06 04:10:13;;;;;;;4.38;2.90;;;15.70;96.70;;;;;;5064564;28;20571;-87
2022/05/06 04:12:45;;;;;;;2.95;2.40;;;15.70;96.70;;;;;;5060204;28;20091;-87
2022/05/06 04:15:13;;;;;;;5.05;2.72;;;15.70;96.70;;;;;;5061577;28;20347;-87
2022/05/06 04:17:43;;;;;;;4.05;2.47;;;15.70;96.70;;;;;;5045880;28;20056;-86
2022/05/06 04:25:47;;;;;;;5.07;2.83;;;15.70;96.70;;;;;;5052766;28;20056;-85
2022/05/06 04:28:19;;;;;;;3.72;2.83;;;15.70;96.70;;;;;;5058653;28;20055;-85
2022/05/06 04:30:51;;;;;;;6.75;2.78;;;15.70;96.70;;;;;;5045987;28;20297;-85
2022/05/06 04:33:20;;;;;;;3.38;3.00;;;15.70;96.70;;;;;;5068561;28;20105;-86
2022/05/06 04:35:50;;;;;;;4.03;2.90;;;15.70;96.70;;;;;;5050873;28;20068;-85
2022/05/06 04:38:25;;;;;;;6.75;3.53;;;15.70;96.70;;;;;;5051048;28;20045;-84
2022/05/06 04:40:56;;;;;;;5.55;3.00;;;15.70;96.70;;;;;;5055147;28;20040;-85
2022/05/06 04:43:26;;;;;;;6.85;2.97;;;15.70;96.70;;;;;;5065613;28;20056;-86
2022/05/06 04:45:55;;;;;;;5.07;3.03;;;15.70;96.70;;;;;;5059706;28;20119;-86
2022/05/06 04:48:26;;;;;;;6.47;3.30;;;15.60;96.70;;;;;;5048555;28;20048;-84
2022/05/06 04:50:56;;;;;;;5.63;2.95;;;15.60;96.70;;;;;;5056138;28;20049;-84
2022/05/06 04:53:25;;;;;;;9.00;3.35;;;15.60;96.70;;;;;;5059995;28;20140;-82
2022/05/06 04:55:55;;;;;;;4.38;2.92;;;15.60;96.70;;;;;;5051397;28;20047;-82
2022/05/06 04:58:35;;;;;;;3.78;2.75;;;15.60;96.70;;;;;;5055733;28;20528;-82
2022/05/06 05:01:07;;;;;;;4.10;2.85;;;15.60;96.70;;;;;;5048275;28;20041;-82
2022/05/06 05:03:36;;;;;;;4.72;2.83;;;15.60;96.70;;;;;;5042112;28;20072;-82
2022/05/06 05:06:07;;;;;;;4.50;2.78;;;15.60;96.70;;;;;;5052207;28;20159;-81
2022/05/06 05:08:37;;;;;;;4.22;2.78;;;15.60;96.70;;;;;;5061846;28;20040;-82
2022/05/06 05:11:05;;;;;;;6.57;3.00;;;15.60;96.70;;;;;;5056930;28;20067;-82
2022/05/06 05:13:42;;;;;;;4.70;2.85;;;15.60;96.70;;;;;;5048280;28;20323;-82
2022/05/06 05:16:20;;;;;;;9.07;3.00;;;15.70;96.70;;;;;;5061657;28;20071;-83
2022/05/06 05:18:48;;;;;;;4.80;3.05;;;15.70;96.70;;;;;;5059642;28;20044;-82
2022/05/06 05:21:16;;;;;;;5.40;3.13;;;15.60;96.70;;;;;;5064785;28;20041;-82
2022/05/06 05:23:47;;;;;;;5.00;3.67;;;15.60;96.70;;;;;;5043684;28;20048;-82
2022/05/06 05:26:15;;;;;;;5.80;2.83;;;15.60;96.70;;;;;;5046114;28;20048;-81
2022/05/06 05:28:48;;;;;;;5.03;3.40;;;15.60;96.70;;;;;;5063985;28;20394;-81
2022/05/06 05:31:16;;;;;;;4.65;2.83;;;15.60;96.70;;;;;;5064156;28;20048;-82
2022/05/06 05:33:44;;;;;;;4.85;3.30;;;15.70;96.70;;;;;;5061171;28;20044;-82
2022/05/06 05:36:13;;;;;;;5.47;3.42;;;15.70;96.70;;;;;;5048617;28;20405;-82
2022/05/06 05:38:42;;;;;;;5.35;3.17;;;15.70;96.70;;;;;;5060072;28;20133;-82
2022/05/06 05:41:11;;;;;;;5.75;3.80;;;15.60;96.70;;;;;;5061067;28;20048;-82
2022/05/06 05:49:16;;;;;;;6.90;3.63;;;15.60;96.70;;;;;;5062252;28;20509;-85
2022/05/06 05:51:46;;;;;;;6.15;3.35;;;15.50;96.70;;;;;;5059508;28;20044;-85
2022/05/06 05:54:15;;;;;;;6.43;3.53;;;15.60;96.70;;;;;;5048812;28;20102;-85
2022/05/06 05:56:49;;;;;;;6.20;3.60;;;15.60;96.70;;;;;;5060130;28;20094;-85
2022/05/06 05:59:17;;;;;;;6.10;3.30;;;15.70;96.70;;;;;;5066289;28;20113;-86
2022/05/06 06:01:47;;;;;;;8.55;3.65;;;15.70;96.70;;;;;;5064260;28;20044;-85
2022/05/06 06:04:16;;;;;;;9.23;3.63;;;15.70;96.70;;;;;;5067006;28;20043;-85
2022/05/06 06:06:47;;;;;;;6.60;3.53;;;15.70;96.70;;;;;;5060580;28;20040;-86
2022/05/06 06:09:22;;;;;;;7.03;3.33;;;15.70;96.70;;;;;;5067751;28;20094;-86
2022/05/06 06:11:54;;;;;;;4.80;3.33;;;15.70;96.70;;;;;;5055762;28;20055;-85
2022/05/06 06:14:23;;;;;;;6.60;3.08;;;15.70;96.70;;;;;;5064601;28;20051;-86
2022/05/06 06:16:53;;;;;;;5.22;3.53;;;15.70;96.70;;;;;;5061370;28;20056;-85
2022/05/06 06:19:24;;;;;;;6.38;3.35;;;15.80;96.70;;;;;;5050096;28;20106;-85
2022/05/06 06:21:53;;;;;;;5.68;3.40;;;15.70;96.70;;;;;;5049546;28;20142;-86
2022/05/06 06:24:28;;;;;;;8.65;4.40;;;15.70;96.70;;;;;;5044617;28;20056;-85
2022/05/06 06:26:58;;;;;;;7.68;4.20;;;15.70;96.70;;;;;;5042520;28;20511;-85
2022/05/06 06:29:31;;;;;;;5.60;3.53;;;15.60;96.70;;;;;;5046951;28;20040;-85
2022/05/06 06:32:03;;;;;;;8.38;3.90;;;15.60;96.70;;;;;;5050646;28;20044;-86
2022/05/06 06:34:31;;;;;;;9.75;3.90;;;15.70;96.70;;;;;;5064590;28;20106;-86
2022/05/06 06:37:02;;;;;;;8.25;3.92;;;15.70;96.70;;;;;;5060695;28;20968;-86
2022/05/06 06:39:32;;;;;;;7.07;3.67;;;15.80;96.70;;;;;;5045137;28;20096;-85
2022/05/06 06:42:00;;;;;;;7.28;3.90;;;15.80;96.70;;;;;;5066141;28;20049;-85
2022/05/06 06:44:40;;;;;;;6.50;3.72;;;15.80;96.70;;;;;;5065698;28;20140;-85
2022/05/06 06:47:33;;;;;;;8.55;3.15;;;15.80;96.70;;;;;;5036965;28;20079;-85
2022/05/06 06:50:16;;;;;;;8.82;3.30;;;15.90;96.70;;;;;;5057546;28;20136;-85
2022/05/06 06:52:55;;;;;;;9.70;3.72;;;15.90;96.70;;;;;;5055194;28;20729;-85
2022/05/06 06:55:29;;;;;;;5.90;3.63;;;15.90;96.70;;;;;;5047372;28;20631;-85
2022/05/06 06:57:57;;;;;;;9.20;3.95;;;15.90;96.70;;;;;;5064190;28;20622;-83
2022/05/06 07:00:26;;;;;;;10.38;4.70;;;15.90;96.70;;;;;;5060155;28;20560;-82
2022/05/06 07:02:57;;;;;;;8.15;4.93;;;15.90;96.70;;;;;;5043080;28;20037;-81
2022/05/06 07:05:25;;;;;;;8.95;5.15;;;15.90;96.70;;;;;;5044835;28;20045;-83
2022/05/06 07:13:47;;;;;;;12.50;5.10;;;16.00;96.70;;;;;;5058774;28;20052;-81
2022/05/06 07:16:16;;;;;;;12.32;5.38;;;16.00;96.70;;;;;;5060983;28;20127;-83
2022/05/06 07:18:46;;;;;;;15.45;6.15;;;16.10;96.70;;;;;;5058527;28;20105;-83
2022/05/06 07:21:14;;;;;;;10.30;3.72;;;16.10;96.70;;;;;;5068952;28;20051;-84
2022/05/06 07:23:43;;;;;;;9.98;4.25;;;16.10;96.70;;;;;;5057288;28;20099;-84
2022/05/06 07:26:12;;;;;;;7.88;3.85;;;16.10;96.70;;;;;;5067336;28;20052;-83
2022/05/06 07:28:40;;;;;;;7.25;3.80;;;16.10;96.70;;;;;;5068098;28;20037;-82
2022/05/06 07:31:09;;;;;;;5.75;3.58;;;16.20;96.70;;;;;;5060702;28;20072;-81
2022/05/06 07:33:38;;;;;;;8.10;3.50;;;16.30;96.70;;;;;;5061558;28;20135;-81
2022/05/06 07:36:08;;;;;;;7.05;2.80;;;16.30;96.70;;;;;;5064140;28;20612;-81
2022/05/06 07:38:36;;;;;;;7.07;2.80;;;16.30;96.70;;;;;;5065591;28;20108;-80
2022/05/06 07:41:04;;;;;;;6.18;2.50;;;16.30;96.70;;;;;;5056083;28;20048;-81
2022/05/06 07:43:32;;;;;;;8.07;2.40;;;16.30;96.70;;;;;;5050066;28;20084;-82
2022/05/06 07:46:01;;;;;;;7.63;2.53;;;16.30;96.70;;;;;;5063928;28;20064;-82
2022/05/06 07:48:30;;;;;;;3.88;2.50;;;16.40;96.70;;;;;;5057574;28;20054;-82
2022/05/06 07:51:04;;;;;;;3.67;1.70;;;16.40;96.70;;;;;;5058270;28;20098;-82
2022/05/06 07:53:34;;;;;;;3.42;2.00;;;16.40;96.70;;;;;;5062287;28;20482;-84
2022/05/06 07:56:03;;;;;;;3.58;1.75;;;16.40;96.70;;;;;;5065177;28;20049;-83
2022/05/06 07:58:31;;;;;;;3.50;1.40;;;16.50;96.70;;;;;;5063023;28;20041;-84
2022/05/06 08:00:59;;;;;;;3.70;1.88;;;16.50;96.70;;;;;;5068372;28;20125;-84
2022/05/06 08:06:15;;;;;;;3.63;1.60;;;16.50;96.70;;;;;;5067301;28;20205;-83
2022/05/06 08:08:44;;;;;;;3.45;1.50;;;16.50;96.70;;;;;;5068547;28;20044;-84
2022/05/06 08:11:13;;;;;;;4.45;1.90;;;16.60;96.70;;;;;;5062518;28;20063;-83
2022/05/06 08:13:41;;;;;;;6.55;2.22;;;16.60;96.70;;;;;;5063605;28;20490;-82
2022/05/06 08:16:10;;;;;;;4.65;2.15;;;16.60;96.70;;;;;;5049067;28;20095;-81
2022/05/06 08:18:38;;;;;;;4.75;1.77;;;16.70;96.70;;;;;;5063992;28;20045;-82
2022/05/06 08:21:07;;;;;;;5.70;1.92;;;16.70;96.70;;;;;;5066064;28;20091;-81
2022/05/06 08:23:35;;;;;;;4.85;1.90;;;16.80;96.70;;;;;;5047915;28;20041;-81
2022/05/06 08:26:05;;;;;;;4.97;1.85;;;16.90;96.70;;;;;;5042894;28;20040;-82
2022/05/06 08:28:33;;;;;;;4.32;1.60;;;17.00;96.70;;;;;;5060472;28;20075;-84
2022/05/06 08:31:02;;;;;;;6.15;2.22;;;17.10;96.70;;;;;;5061100;28;20052;-79
2022/05/06 08:33:31;;;;;;;6.57;2.70;;;17.10;96.70;;;;;;5055786;28;20462;-80
2022/05/06 08:36:00;;;;;;;8.63;3.25;;;17.20;96.70;;;;;;5052905;28;20040;-80
2022/05/06 08:38:29;;;;;;;6.60;2.63;;;17.20;96.70;;;;;;5036976;28;20079;-81
2022/05/06 08:40:58;;;;;;;6.22;2.13;;;17.20;96.70;;;;;;5056187;28;20094;-82
2022/05/06 08:43:28;;;;;;;2.90;1.70;;;17.20;96.70;;;;;;5060399;28;20513;-80
2022/05/06 08:51:39;;;;;;;4.78;1.77;;;17.30;96.70;;;;;;5057357;28;20048;-81
2022/05/06 08:54:07;;;;;;;3.33;1.40;;;17.30;96.70;;;;;;5045138;28;20508;-81
2022/05/06 08:56:38;;;;;;;5.82;1.40;;;17.40;96.70;;;;;;5039710;28;20052;-81
2022/05/06 08:59:09;;;;;;;2.63;1.30;;;17.40;96.70;;;;;;5054496;28;20052;-81
2022/05/06 09:01:37;;;;;;;5.50;1.48;;;17.60;96.70;;;;;;5056510;28;20059;-81
2022/05/06 09:04:06;;;;;;;3.70;1.52;;;17.70;96.70;;;;;;5059446;28;20055;-83
2022/05/06 09:06:35;;;;;;;4.38;1.50;;;17.90;96.70;;;;;;5058158;28;20041;-81
2022/05/06 09:09:04;;;;;;;3.58;1.13;;;18.00;96.70;;;;;;5061924;28;20040;-81
2022/05/06 09:16:39;;;;;;;2.47;0.80;;;18.20;96.70;;;;;;5060077;28;20064;-81
2022/05/06 09:17:19;;;;;;;4.78;2.05;;;18.10;96.70;;;;;;5064776;28;20052;-85
2022/05/06 09:19:48;;;;;;;4.95;1.88;;;18.10;96.70;;;;;;5060498;28;20044;-83
2022/05/06 09:22:16;;;;;;;4.47;1.33;;;18.20;96.70;;;;;;5041170;28;20412;-84
2022/05/06 09:24:50;;;;;;;5.40;2.58;;;18.30;96.70;;;;;;5044331;28;20044;-83
2022/05/06 09:27:21;;;;;;;3.00;1.60;;;18.50;96.70;;;;;;5062365;28;20051;-83
2022/05/06 09:29:50;;;;;;;2.92;1.00;;;18.60;96.70;;;;;;5066545;28;20072;-84
2022/05/06 09:32:23;;;;;;;2.20;0.63;;;18.70;96.70;;;;;;5065163;28;20039;-85
2022/05/06 09:34:53;;;;;;;2.53;0.88;;;18.80;96.70;;;;;;5053898;28;20752;-85
2022/05/06 09:37:31;;;;;;;1.73;0.73;;;19.00;96.70;;;;;;5059763;28;21018;-85
2022/05/06 09:40:08;;;;;;;2.20;0.95;;;19.10;96.70;;;;;;5066770;28;20051;-82
2022/05/06 09:42:38;;;;;;;1.20;0.63;;;19.30;96.70;;;;;;5044826;28;20057;-82
2022/05/06 09:45:10;;;;;;;2.08;0.75;;;19.30;96.70;;;;;;5065520;28;20075;-84
2022/05/06 09:47:40;;;;;;;2.65;0.70;;;19.40;96.70;;;;;;5062475;28;20097;-83
2022/05/06 09:50:11;;;;;;;1.77;0.60;;;19.50;96.70;;;;;;5065743;28;20506;-83
2022/05/06 09:52:39;;;;;;;0.85;0.40;;;19.60;96.70;;;;;;5048258;28;20520;-84
2022/05/06 09:55:09;;;;;;;4.40;0.65;;;19.80;96.70;;;;;;5053868;28;20037;-82
2022/05/06 09:57:38;;;;;;;1.35;0.50;;;19.80;96.70;;;;;;5061038;28;20044;-83
2022/05/06 10:00:08;;;;;;;2.80;0.70;;;19.80;96.70;;;;;;5064073;28;20055;-82
2022/05/06 10:02:38;;;;;;;2.28;0.70;;;19.90;96.70;;;;;;5043678;28;20144;-82
2022/05/06 10:05:08;;;;;;;4.50;0.50;;;19.80;96.70;;;;;;5059889;28;20040;-81
2022/05/06 10:07:41;;;;;;;2.00;0.50;;;19.90;96.70;;;;;;5038955;28;20056;-82
2022/05/06 10:10:15;;;;;;;3.55;0.90;;;19.90;96.70;;;;;;5048779;28;20135;-83
2022/05/06 10:12:52;;;;;;;1.05;0.40;;;19.90;96.70;;;;;;5049334;28;20706;-82
2022/05/06 10:15:24;;;;;;;2.47;0.60;;;19.90;96.70;;;;;;5049028;28;20140;-82
2022/05/06 10:17:54;;;;;;;2.40;0.50;;;19.90;96.70;;;;;;5064928;28;20052;-82
2022/05/06 10:20:48;;;;;;;2.55;0.50;;;19.80;96.70;;;;;;5066129;28;20409;-82
2022/05/06 10:23:18;;;;;;;1.95;0.40;;;19.90;96.70;;;;;;5058351;28;20297;-82
2022/05/06 10:25:49;;;;;;;2.78;0.40;;;19.90;96.70;;;;;;5062016;28;20045;-82
2022/05/06 10:34:31;;;;;;;3.03;0.40;;;19.80;96.70;;;;;;5064135;28;20048;-81
2022/05/06 10:37:02;;;;;;;1.50;0.50;;;19.70;96.70;;;;;;5064650;28;20036;-82
2022/05/06 10:39:36;;;;;;;1.45;0.30;;;19.60;96.70;;;;;;5043036;28;20536;-81
2022/05/06 10:42:06;;;;;;;3.00;0.40;;;19.60;96.70;;;;;;5062986;28;20045;-81
2022/05/06 10:44:38;;;;;;;2.20;0.60;;;19.50;96.70;;;;;;5065051;28;20078;-81
2022/05/06 10:47:40;;;;;;;1.25;0.43;;;19.50;96.70;;;;;;5064198;28;20787;-81
2022/05/06 10:50:22;;;;;;;1.33;0.32;;;19.40;96.70;;;;;;5056634;28;20098;-82
2022/05/06 10:52:57;;;;;;;3.08;0.60;;;19.30;96.70;;;;;;5045034;28;20041;-82
2022/05/06 10:55:26;;;;;;;3.08;0.75;;;19.20;96.70;;;;;;5051608;28;20048;-82
2022/05/06 10:58:09;;;;;;;2.65;1.05;;;19.20;96.70;;;;;;5068761;28;20600;-82
2022/05/06 11:00:39;;;;;;;1.05;0.40;;;19.10;96.70;;;;;;5061655;28;20489;-82
2022/05/06 11:03:06;;;;;;;2.90;0.50;;;19.10;96.70;;;;;;5052546;28;20045;-81
2022/05/06 11:05:38;;;;;;;2.80;0.30;;;19.00;96.70;;;;;;5068275;28;20064;-82
2022/05/06 11:08:09;;;;;;;1.25;0.40;;;18.90;96.70;;;;;;5067854;28;20096;-82
2022/05/06 11:10:37;;;;;;;2.58;0.52;;;18.90;96.70;;;;;;5059832;28;20135;-82
2022/05/06 11:13:26;;;;;;;0.60;0.40;;;18.90;96.70;;;;;;5059661;28;20063;-82
2022/05/06 11:15:56;;;;;;;5.85;0.90;;;18.90;96.70;;;;;;5043173;28;20049;-81
2022/05/06 11:18:25;;;;;;;4.32;0.75;;;18.90;96.70;;;;;;5050647;28;20059;-82
2022/05/06 11:20:55;;;;;;;3.80;0.60;;;18.90;96.70;;;;;;5051528;28;20040;-82
2022/05/06 11:23:29;;;;;;;2.50;0.70;;;18.90;96.70;;;;;;5062425;28;20071;-81
2022/05/06 11:25:57;;;;;;;5.63;0.77;;;19.00;96.70;;;;;;5067112;28;20044;-81
2022/05/06 11:28:25;;;;;;;1.00;0.30;;;19.00;96.70;;;;;;5047478;28;20237;-82
2022/05/06 11:30:54;;;;;;;1.30;0.50;;;19.00;96.70;;;;;;5068001;28;20048;-82
2022/05/06 11:33:25;;;;;;;3.22;0.75;;;19.00;96.70;;;;;;5046766;28;20041;-82
2022/05/06 11:36:03;;;;;;;2.72;0.68;;;19.10;96.70;;;;;;5058963;28;20057;-82
2022/05/06 11:38:33;;;;;;;2.80;0.60;;;19.10;96.70;;;;;;5052398;28;20487;-82
2022/05/06 11:41:09;;;;;;;3.80;0.80;;;19.10;96.70;;;;;;5050268;28;20041;-81
2022/05/06 11:43:38;;;;;;;2.10;0.57;;;19.10;96.70;;;;;;5055850;28;20060;-81
2022/05/06 11:48:53;;;;;;;2.25;0.80;;;19.10;96.70;;;;;;5064204;28;20681;-82
2022/05/06 11:51:25;;;;;;;1.40;0.60;;;19.10;96.70;;;;;;5059453;28;20124;-82
2022/05/06 11:53:55;;;;;;;2.75;0.70;;;19.10;96.70;;;;;;5059986;28;20045;-82
2022/05/06 11:56:25;;;;;;;2.83;0.75;;;19.20;96.70;;;;;;5067619;28;20048;-82
2022/05/06 11:58:56;;;;;;;3.05;0.80;;;19.20;96.70;;;;;;5064213;28;20051;-81
2022/05/06 12:01:26;;;;;;;1.17;0.55;;;19.30;96.70;;;;;;5058572;28;20054;-82
2022/05/06 12:03:59;;;;;;;3.30;0.70;;;19.30;96.70;;;;;;5065284;28;20064;-82
2022/05/06 12:06:38;;;;;;;3.67;0.82;;;19.40;96.70;;;;;;5067321;28;20048;-82
2022/05/06 12:09:09;;;;;;;2.42;0.70;;;19.60;96.70;;;;;;5060227;28;20148;-82
2022/05/06 12:11:37;;;;;;;3.78;1.42;;;19.70;96.70;;;;;;5067387;28;20095;-82
2022/05/06 12:14:07;;;;;;;1.75;0.70;;;19.80;96.70;;;;;;5050774;28;20196;-81
2022/05/06 12:16:58;;;;;;;2.67;0.88;;;19.90;96.70;;;;;;5064915;28;20036;-82
2022/05/06 12:19:37;;;;;;;2.97;0.82;;;20.00;96.70;;;;;;5045794;28;20072;-83
2022/05/06 12:22:12;;;;;;;3.38;0.90;;;20.00;96.70;;;;;;5051260;28;20048;-83
2022/05/06 12:24:42;;;;;;;2.15;0.73;;;20.00;96.70;;;;;;5051011;28;20052;-84
2022/05/06 12:27:11;;;;;;;3.40;0.80;;;20.10;96.70;;;;;;5059542;28;20071;-82
2022/05/06 12:29:41;;;;;;;3.40;0.95;;;20.20;96.70;;;;;;5061395;28;20525;-82
2022/05/06 12:32:11;;;;;;;4.32;0.90;;;20.40;96.70;;;;;;5065883;28;20064;-81
2022/05/06 12:34:39;;;;;;;3.30;0.93;;;20.50;96.70;;;;;;5063553;28;20048;-82
2022/05/06 12:37:55;;;;;;;1.63;0.80;;;20.60;96.70;;;;;;5055947;28;20129;-82
2022/05/06 12:40:29;;;;;;;5.13;0.98;;;20.70;96.70;;;;;;5064911;28;20076;-81
2022/05/06 12:43:05;;;;;;;4.50;0.90;;;20.90;96.70;;;;;;5058509;28;20127;-82
2022/05/06 12:45:33;;;;;;;2.60;0.40;;;21.20;96.70;;;;;;5063903;28;20142;-82
2022/05/06 12:50:48;;;;;;;3.53;0.73;;;21.50;96.70;;;;;;5066708;28;20044;-82
2022/05/06 12:53:19;;;;;;;1.73;1.10;;;21.50;96.70;;;;;;5062681;28;20509;-81
2022/05/06 12:55:47;;;;;;;3.78;0.88;;;21.50;96.70;;;;;;5053082;28;20048;-82
2022/05/06 12:58:15;;;;;;;2.33;0.82;;;21.50;96.70;;;;;;5056505;28;20043;-81
2022/05/06 13:00:44;;;;;;;3.25;1.08;;;21.60;96.70;;;;;;5054187;28;20060;-81
2022/05/06 13:03:12;;;;;;;2.90;0.52;;;21.60;96.70;;;;;;5065432;28;20111;-82
2022/05/06 13:05:43;;;;;;;4.43;0.80;;;21.60;96.70;;;;;;5053464;28;20045;-82
2022/05/06 13:08:11;;;;;;;2.33;0.88;;;21.60;96.70;;;;;;5066090;28;20139;-82
2022/05/06 13:10:41;;;;;;;2.85;0.70;;;21.70;96.70;;;;;;5064973;28;20040;-82
2022/05/06 13:13:15;;;;;;;1.52;0.55;;;21.70;96.70;;;;;;5049883;28;20056;-82
2022/05/06 13:15:44;;;;;;;6.10;0.90;;;21.90;96.70;;;;;;5063603;28;20226;-83
2022/05/06 13:18:12;;;;;;;2.95;0.70;;;22.00;96.70;;;;;;5040744;28;20055;-81
2022/05/06 13:20:40;;;;;;;2.60;0.80;;;21.90;96.70;;;;;;5057979;28;20408;-81
2022/05/06 13:23:09;;;;;;;2.63;0.70;;;21.70;96.70;;;;;;5058399;28;20057;-82
2022/05/06 13:25:37;;;;;;;2.25;0.82;;;21.50;96.70;;;;;;5063138;28;20049;-81
2022/05/06 13:28:07;;;;;;;3.40;0.73;;;21.40;96.70;;;;;;5058740;28;20036;-81
2022/05/06 13:30:35;;;;;;;2.13;0.57;;;21.20;96.70;;;;;;5052613;28;20055;-80
2022/05/06 13:33:03;;;;;;;4.10;1.10;;;21.20;96.70;;;;;;5057258;28;20086;-81
2022/05/06 13:35:32;;;;;;;2.35;0.60;;;21.10;96.70;;;;;;5062179;28;20048;-81
2022/05/06 13:38:01;;;;;;;3.85;0.70;;;21.00;96.70;;;;;;5051800;28;20801;-80
2022/05/06 13:40:29;;;;;;;3.13;0.98;;;20.90;96.70;;;;;;5038546;28;20040;-81
2022/05/06 13:42:57;;;;;;;2.90;0.68;;;20.90;96.70;;;;;;5043265;28;20073;-81
2022/05/06 13:45:28;;;;;;;4.10;0.75;;;20.90;96.70;;;;;;5061713;28;21317;-82
2022/05/06 13:47:56;;;;;;;3.75;0.50;;;20.90;96.70;;;;;;5046293;28;20066;-82
2022/05/06 13:50:24;;;;;;;4.30;0.88;;;20.80;96.70;;;;;;5064292;28;20048;-81
2022/05/06 13:52:53;;;;;;;3.40;0.77;;;20.60;96.70;;;;;;5047486;28;20040;-82
2022/05/06 13:55:21;;;;;;;3.53;0.70;;;20.50;96.70;;;;;;5057083;28;20045;-82
2022/05/06 14:00:38;;;;;;;1.80;0.70;;;20.40;96.70;;;;;;5065374;28;20579;-81
2022/05/06 14:03:07;;;;;;;2.60;0.80;;;20.30;96.70;;;;;;5063260;28;20155;-81
2022/05/06 14:05:38;;;;;;;3.90;0.98;;;20.20;96.70;;;;;;5063275;28;20041;-82